sensor_id;sensor_type;location;lat;lon;timestamp;pressure;altitude;pressure_sealevel;temperature;humidity
39435;BME280;66825;51.880;-0.518;2024-02-21T00:00:08;101006.59;;;17.44;47.89
39435;BME280;66825;51.880;-0.518;2024-02-21T00:02:34;100999.00;;;17.41;48.15
39435;BME280;66825;51.880;-0.518;2024-02-21T00:05:00;101003.88;;;17.44;47.92
39435;BME280;66825;51.880;-0.518;2024-02-21T00:07:25;100990.25;;;17.44;48.18
39435;BME280;66825;51.880;-0.518;2024-02-21T00:09:51;100964.53;;;17.26;48.17
39435;BME280;66825;51.880;-0.518;2024-02-21T00:12:16;100981.56;;;17.42;48.24
39435;BME280;66825;51.880;-0.518;2024-02-21T00:14:42;100971.50;;;17.37;48.06
39435;BME280;66825;51.880;-0.518;2024-02-21T00:17:07;100972.03;;;17.39;48.14
39435;BME280;66825;51.880;-0.518;2024-02-21T00:19:34;100969.31;;;17.39;48.07
39435;BME280;66825;51.880;-0.518;2024-02-21T00:21:59;100966.91;;;17.38;48.15
39435;BME280;66825;51.880;-0.518;2024-02-21T00:24:24;100965.25;;;17.37;48.21
39435;BME280;66825;51.880;-0.518;2024-02-21T00:26:50;100959.81;;;17.37;48.05
39435;BME280;66825;51.880;-0.518;2024-02-21T00:29:15;100950.03;;;17.36;47.79
39435;BME280;66825;51.880;-0.518;2024-02-21T00:31:41;100954.66;;;17.35;47.83
39435;BME280;66825;51.880;-0.518;2024-02-21T00:34:06;100947.59;;;17.34;48.00
39435;BME280;66825;51.880;-0.518;2024-02-21T00:36:32;100935.88;;;17.34;48.09
39435;BME280;66825;51.880;-0.518;2024-02-21T00:38:58;100931.53;;;17.33;48.07
39435;BME280;66825;51.880;-0.518;2024-02-21T00:41:23;100935.06;;;17.33;48.14
39435;BME280;66825;51.880;-0.518;2024-02-21T00:43:48;100820.56;;;16.55;48.23
39435;BME280;66825;51.880;-0.518;2024-02-21T00:46:15;100900.09;;;17.16;48.15
39435;BME280;66825;51.880;-0.518;2024-02-21T00:48:41;100923.41;;;17.27;48.18
39435;BME280;66825;51.880;-0.518;2024-02-21T00:51:06;100918.78;;;17.28;48.08
39435;BME280;66825;51.880;-0.518;2024-02-21T00:53:31;100916.31;;;17.26;48.10
39435;BME280;66825;51.880;-0.518;2024-02-21T00:55:57;100908.16;;;17.26;48.36
39435;BME280;66825;51.880;-0.518;2024-02-21T00:58:22;100914.72;;;17.25;47.90
39435;BME280;66825;51.880;-0.518;2024-02-21T01:00:48;100917.44;;;17.25;48.08
39435;BME280;66825;51.880;-0.518;2024-02-21T01:03:14;100910.38;;;17.24;48.25
39435;BME280;66825;51.880;-0.518;2024-02-21T01:05:39;100899.00;;;17.17;47.85
39435;BME280;66825;51.880;-0.518;2024-02-21T01:08:05;100871.91;;;17.02;48.28
39435;BME280;66825;51.880;-0.518;2024-02-21T01:10:31;100852.63;;;16.98;47.89
39435;BME280;66825;51.880;-0.518;2024-02-21T01:12:56;100873.72;;;17.11;48.33
39435;BME280;66825;51.880;-0.518;2024-02-21T01:15:22;100745.19;;;16.26;48.16
39435;BME280;66825;51.880;-0.518;2024-02-21T01:17:47;100900.34;;;17.20;48.07
39435;BME280;66825;51.880;-0.518;2024-02-21T01:20:13;100876.97;;;17.13;47.92
39435;BME280;66825;51.880;-0.518;2024-02-21T01:22:38;100859.28;;;17.11;48.40
39435;BME280;66825;51.880;-0.518;2024-02-21T01:25:04;100871.47;;;17.19;48.05
39435;BME280;66825;51.880;-0.518;2024-02-21T01:27:29;100858.16;;;17.17;48.26
39435;BME280;66825;51.880;-0.518;2024-02-21T01:29:55;100835.44;;;17.03;48.12
39435;BME280;66825;51.880;-0.518;2024-02-21T01:32:21;100850.84;;;17.12;48.14
39435;BME280;66825;51.880;-0.518;2024-02-21T01:34:49;100849.47;;;17.15;47.96
39435;BME280;66825;51.880;-0.518;2024-02-21T01:37:15;100836.72;;;17.10;47.90
39435;BME280;66825;51.880;-0.518;2024-02-21T01:39:40;100839.66;;;17.14;48.37
39435;BME280;66825;51.880;-0.518;2024-02-21T01:42:06;100829.88;;;17.13;47.94
39435;BME280;66825;51.880;-0.518;2024-02-21T01:44:31;100834.53;;;17.12;48.12
39435;BME280;66825;51.880;-0.518;2024-02-21T01:46:57;100795.22;;;16.94;47.96
39435;BME280;66825;51.880;-0.518;2024-02-21T01:49:22;100791.13;;;16.97;48.19
39435;BME280;66825;51.880;-0.518;2024-02-21T01:51:48;100805.13;;;17.09;48.25
39435;BME280;66825;51.880;-0.518;2024-02-21T01:54:16;100759.09;;;16.83;48.15
39435;BME280;66825;51.880;-0.518;2024-02-21T01:56:43;100796.97;;;17.09;48.06
39435;BME280;66825;51.880;-0.518;2024-02-21T01:59:08;100784.22;;;17.05;48.44
39435;BME280;66825;51.880;-0.518;2024-02-21T02:01:34;100779.00;;;17.08;48.14
39435;BME280;66825;51.880;-0.518;2024-02-21T02:04:00;100782.03;;;17.07;48.03
39435;BME280;66825;51.880;-0.518;2024-02-21T02:06:26;100760.25;;;17.07;48.37
39435;BME280;66825;51.880;-0.518;2024-02-21T02:08:52;100609.91;;;16.13;48.09
39435;BME280;66825;51.880;-0.518;2024-02-21T02:11:18;100746.09;;;17.05;48.27
39435;BME280;66825;51.880;-0.518;2024-02-21T02:13:44;100734.97;;;17.01;48.29
39435;BME280;66825;51.880;-0.518;2024-02-21T02:16:09;100720.38;;;16.92;48.05
39435;BME280;66825;51.880;-0.518;2024-02-21T02:18:35;100711.16;;;16.88;48.27
39435;BME280;66825;51.880;-0.518;2024-02-21T02:21:00;100678.66;;;16.72;48.37
39435;BME280;66825;51.880;-0.518;2024-02-21T02:23:33;100608.94;;;16.28;48.28
39435;BME280;66825;51.880;-0.518;2024-02-21T02:25:59;100713.22;;;17.01;48.29
39435;BME280;66825;51.880;-0.518;2024-02-21T02:28:26;100669.41;;;16.73;48.06
39435;BME280;66825;51.880;-0.518;2024-02-21T02:30:52;100710.78;;;16.99;48.24
39435;BME280;66825;51.880;-0.518;2024-02-21T02:33:18;100672.13;;;16.73;48.29
39435;BME280;66825;51.880;-0.518;2024-02-21T02:35:44;100705.66;;;16.98;48.12
39435;BME280;66825;51.880;-0.518;2024-02-21T02:38:09;100704.81;;;16.97;48.19
39435;BME280;66825;51.880;-0.518;2024-02-21T02:40:38;100695.03;;;16.96;48.40
39435;BME280;66825;51.880;-0.518;2024-02-21T02:43:04;100686.38;;;16.89;48.10
39435;BME280;66825;51.880;-0.518;2024-02-21T02:45:29;100683.34;;;16.96;48.25
39435;BME280;66825;51.880;-0.518;2024-02-21T02:47:56;100684.44;;;16.95;48.18
39435;BME280;66825;51.880;-0.518;2024-02-21T02:50:23;100687.16;;;16.95;48.45
39435;BME280;66825;51.880;-0.518;2024-02-21T02:52:48;100565.56;;;16.17;48.57
39435;BME280;66825;51.880;-0.518;2024-02-21T02:55:14;100671.97;;;16.89;48.36
39435;BME280;66825;51.880;-0.518;2024-02-21T02:57:39;100661.66;;;16.86;48.29
39435;BME280;66825;51.880;-0.518;2024-02-21T03:00:07;100651.88;;;16.85;48.52
39435;BME280;66825;51.880;-0.518;2024-02-21T03:02:33;100649.63;;;16.92;48.32
39435;BME280;66825;51.880;-0.518;2024-02-21T03:04:58;100602.56;;;16.67;48.29
39435;BME280;66825;51.880;-0.518;2024-02-21T03:07:25;100633.56;;;16.90;48.10
39435;BME280;66825;51.880;-0.518;2024-02-21T03:09:50;100625.00;;;16.78;48.62
39435;BME280;66825;51.880;-0.518;2024-02-21T03:12:16;100622.22;;;16.83;48.35
39435;BME280;66825;51.880;-0.518;2024-02-21T03:14:50;100494.78;;;16.03;48.13
39435;BME280;66825;51.880;-0.518;2024-02-21T08:48:05;99760.19;;;17.39;47.56
39435;BME280;66825;51.880;-0.518;2024-02-21T08:50:30;99829.22;;;17.92;47.44
39435;BME280;66825;51.880;-0.518;2024-02-21T08:52:56;99828.47;;;18.01;47.31
39435;BME280;66825;51.880;-0.518;2024-02-21T08:55:21;99780.16;;;17.84;47.12
39435;BME280;66825;51.880;-0.518;2024-02-21T08:57:47;99813.44;;;18.12;47.45
39435;BME280;66825;51.880;-0.518;2024-02-21T09:00:13;99807.81;;;18.17;47.14
39435;BME280;66825;51.880;-0.518;2024-02-21T09:02:40;99799.47;;;18.22;47.28
39435;BME280;66825;51.880;-0.518;2024-02-21T09:05:06;99788.56;;;18.22;47.52
39435;BME280;66825;51.880;-0.518;2024-02-21T09:07:32;99781.53;;;18.30;47.59
39435;BME280;66825;51.880;-0.518;2024-02-21T09:09:57;99666.53;;;17.58;48.25
39435;BME280;66825;51.880;-0.518;2024-02-21T09:12:23;99782.00;;;18.50;48.19
39435;BME280;66825;51.880;-0.518;2024-02-21T09:14:48;99760.16;;;18.50;48.34
39435;BME280;66825;51.880;-0.518;2024-02-21T09:17:18;99790.94;;;18.68;48.31
39435;BME280;66825;51.880;-0.518;2024-02-21T09:19:46;99761.28;;;18.66;48.12
39435;BME280;66825;51.880;-0.518;2024-02-21T09:22:12;99710.75;;;18.51;48.17
39435;BME280;66825;51.880;-0.518;2024-02-21T09:24:37;99704.31;;;18.56;48.29
39435;BME280;66825;51.880;-0.518;2024-02-21T09:27:03;99700.78;;;18.64;48.42
39435;BME280;66825;51.880;-0.518;2024-02-21T09:29:28;99729.63;;;18.92;48.13
39435;BME280;66825;51.880;-0.518;2024-02-21T09:31:54;99723.00;;;19.01;48.09
39435;BME280;66825;51.880;-0.518;2024-02-21T09:34:19;99586.66;;;18.19;47.99
39435;BME280;66825;51.880;-0.518;2024-02-21T09:36:45;99739.16;;;19.15;48.02
39435;BME280;66825;51.880;-0.518;2024-02-21T09:39:10;99673.91;;;18.93;48.09
39435;BME280;66825;51.880;-0.518;2024-02-21T09:41:49;99713.91;;;19.27;48.04
39435;BME280;66825;51.880;-0.518;2024-02-21T09:44:19;99579.16;;;18.54;47.97
39435;BME280;66825;51.880;-0.518;2024-02-21T09:47:02;99659.97;;;19.15;47.27
39435;BME280;66825;51.880;-0.518;2024-02-21T09:49:32;99701.09;;;19.40;47.38
39435;BME280;66825;51.880;-0.518;2024-02-21T09:52:01;99688.28;;;19.41;47.09
39435;BME280;66825;51.880;-0.518;2024-02-21T09:54:30;99601.63;;;18.90;47.20
39435;BME280;66825;51.880;-0.518;2024-02-21T09:56:56;99635.56;;;19.19;47.28
39435;BME280;66825;51.880;-0.518;2024-02-21T09:59:22;99652.94;;;19.35;46.94
39435;BME280;66825;51.880;-0.518;2024-02-21T10:01:49;99644.59;;;19.32;46.91
39435;BME280;66825;51.880;-0.518;2024-02-21T10:04:15;99588.72;;;19.08;46.78
39435;BME280;66825;51.880;-0.518;2024-02-21T10:06:41;99646.81;;;19.39;46.88
39435;BME280;66825;51.880;-0.518;2024-02-21T10:09:07;99633.78;;;19.44;46.76
39435;BME280;66825;51.880;-0.518;2024-02-21T10:11:32;99551.53;;;18.95;47.53
39435;BME280;66825;51.880;-0.518;2024-02-21T10:14:05;99616.25;;;19.45;46.96
39435;BME280;66825;51.880;-0.518;2024-02-21T10:16:30;99603.53;;;19.49;47.66
39435;BME280;66825;51.880;-0.518;2024-02-21T10:18:56;99570.09;;;19.31;47.23
39435;BME280;66825;51.880;-0.518;2024-02-21T10:21:21;99545.88;;;19.21;46.94
39435;BME280;66825;51.880;-0.518;2024-02-21T10:23:48;99588.19;;;19.57;47.14
39435;BME280;66825;51.880;-0.518;2024-02-21T10:26:15;99576.94;;;19.59;46.63
39435;BME280;66825;51.880;-0.518;2024-02-21T10:28:41;99551.63;;;19.49;46.72
39435;BME280;66825;51.880;-0.518;2024-02-21T10:31:11;99548.75;;;19.46;46.52
39435;BME280;66825;51.880;-0.518;2024-02-21T10:33:56;99553.13;;;19.59;47.09
39435;BME280;66825;51.880;-0.518;2024-02-21T10:36:23;99530.69;;;19.53;46.78
39435;BME280;66825;51.880;-0.518;2024-02-21T10:38:49;99531.75;;;19.61;46.70
39435;BME280;66825;51.880;-0.518;2024-02-21T10:41:15;99526.03;;;19.54;47.33
39435;BME280;66825;51.880;-0.518;2024-02-21T10:43:46;99524.94;;;19.67;46.92
39435;BME280;66825;51.880;-0.518;2024-02-21T10:46:14;99512.53;;;19.70;47.03
39435;BME280;66825;51.880;-0.518;2024-02-21T10:48:44;99449.78;;;19.28;46.57
39435;BME280;66825;51.880;-0.518;2024-02-21T10:56:28;99497.50;;;19.76;46.43
39435;BME280;66825;51.880;-0.518;2024-02-21T10:58:53;99490.78;;;19.74;46.73
39435;BME280;66825;51.880;-0.518;2024-02-21T11:01:21;99481.00;;;19.73;46.22
39435;BME280;66825;51.880;-0.518;2024-02-21T11:03:49;99463.56;;;19.65;46.28
39435;BME280;66825;51.880;-0.518;2024-02-21T11:06:16;99420.25;;;19.42;46.32
39435;BME280;66825;51.880;-0.518;2024-02-21T11:08:42;99448.06;;;19.69;46.23
39435;BME280;66825;51.880;-0.518;2024-02-21T11:11:08;99445.34;;;19.69;46.45
39435;BME280;66825;51.880;-0.518;2024-02-21T11:13:35;99456.28;;;19.69;46.13
39435;BME280;66825;51.880;-0.518;2024-02-21T11:16:08;99450.81;;;19.69;46.30
39435;BME280;66825;51.880;-0.518;2024-02-21T11:18:34;99335.63;;;19.09;46.36
39435;BME280;66825;51.880;-0.518;2024-02-21T11:21:00;99423.47;;;19.69;46.38
39435;BME280;66825;51.880;-0.518;2024-02-21T11:23:26;99416.09;;;19.70;46.27
39435;BME280;66825;51.880;-0.518;2024-02-21T11:25:52;99412.25;;;19.71;46.52
39435;BME280;66825;51.880;-0.518;2024-02-21T11:28:25;99364.25;;;19.48;46.58
39435;BME280;66825;51.880;-0.518;2024-02-21T11:30:50;99393.91;;;19.71;46.39
39435;BME280;66825;51.880;-0.518;2024-02-21T11:33:16;99386.59;;;19.75;46.57
39435;BME280;66825;51.880;-0.518;2024-02-21T11:35:42;99392.66;;;19.81;46.82
39435;BME280;66825;51.880;-0.518;2024-02-21T11:40:39;99327.50;;;19.58;46.67
39435;BME280;66825;51.880;-0.518;2024-02-21T11:43:05;99372.88;;;19.96;46.77
39435;BME280;66825;51.880;-0.518;2024-02-21T11:45:31;99353.84;;;20.00;46.48
39435;BME280;66825;51.880;-0.518;2024-02-21T11:47:58;99348.50;;;20.04;48.09
39435;BME280;66825;51.880;-0.518;2024-02-21T11:50:26;99292.00;;;19.71;46.17
39435;BME280;66825;51.880;-0.518;2024-02-21T11:52:54;99322.06;;;20.08;46.10
39435;BME280;66825;51.880;-0.518;2024-02-21T11:55:20;99316.25;;;20.09;45.96
39435;BME280;66825;51.880;-0.518;2024-02-21T11:57:49;99313.97;;;20.11;45.62
39435;BME280;66825;51.880;-0.518;2024-02-21T12:00:16;99319.88;;;20.13;45.21
39435;BME280;66825;51.880;-0.518;2024-02-21T12:02:43;99189.81;;;19.34;45.44
39435;BME280;66825;51.880;-0.518;2024-02-21T12:05:10;99308.50;;;20.11;45.44
39435;BME280;66825;51.880;-0.518;2024-02-21T12:07:37;99277.28;;;20.00;45.45
39435;BME280;66825;51.880;-0.518;2024-02-21T12:10:13;99274.00;;;20.07;45.57
39435;BME280;66825;51.880;-0.518;2024-02-21T12:12:39;99268.97;;;20.09;45.50
39435;BME280;66825;51.880;-0.518;2024-02-21T12:15:05;99263.06;;;20.07;45.37
39435;BME280;66825;51.880;-0.518;2024-02-21T12:17:39;99240.50;;;19.97;45.33
39435;BME280;66825;51.880;-0.518;2024-02-21T12:20:05;99227.00;;;19.89;45.39
39435;BME280;66825;51.880;-0.518;2024-02-21T12:22:52;99200.25;;;19.70;45.78
39435;BME280;66825;51.880;-0.518;2024-02-21T12:25:22;99234.91;;;20.06;46.16
39435;BME280;66825;51.880;-0.518;2024-02-21T12:27:49;99203.50;;;20.00;46.19
39435;BME280;66825;51.880;-0.518;2024-02-21T12:30:17;99195.66;;;19.98;46.08
39435;BME280;66825;51.880;-0.518;2024-02-21T12:32:43;99213.44;;;20.21;45.87
39435;BME280;66825;51.880;-0.518;2024-02-21T12:35:09;99100.75;;;19.58;45.85
39435;BME280;66825;51.880;-0.518;2024-02-21T12:37:34;99194.16;;;20.29;45.72
39435;BME280;66825;51.880;-0.518;2024-02-21T12:40:00;99189.13;;;20.31;45.40
39435;BME280;66825;51.880;-0.518;2024-02-21T12:42:26;99184.88;;;20.34;45.37
39435;BME280;66825;51.880;-0.518;2024-02-21T12:44:52;99179.88;;;20.36;45.13
39435;BME280;66825;51.880;-0.518;2024-02-21T12:47:18;99162.78;;;20.39;45.37
39435;BME280;66825;51.880;-0.518;2024-02-21T12:49:45;99087.00;;;19.95;45.75
39435;BME280;66825;51.880;-0.518;2024-02-21T12:52:11;99124.63;;;20.30;45.20
39435;BME280;66825;51.880;-0.518;2024-02-21T12:54:36;99135.94;;;20.45;44.97
39435;BME280;66825;51.880;-0.518;2024-02-21T12:57:02;99121.84;;;20.43;45.48
39435;BME280;66825;51.880;-0.518;2024-02-21T12:59:30;99114.22;;;20.36;45.01
39435;BME280;66825;51.880;-0.518;2024-02-21T13:01:55;99127.22;;;20.39;45.38
39435;BME280;66825;51.880;-0.518;2024-02-21T13:04:21;99103.03;;;20.41;45.37
39435;BME280;66825;51.880;-0.518;2024-02-21T13:06:49;99085.81;;;20.41;45.67
39435;BME280;66825;51.880;-0.518;2024-02-21T13:09:15;99079.03;;;20.35;45.23
39435;BME280;66825;51.880;-0.518;2024-02-21T13:11:41;99067.91;;;20.43;45.36
39435;BME280;66825;51.880;-0.518;2024-02-21T13:14:07;99056.09;;;20.39;45.30
39435;BME280;66825;51.880;-0.518;2024-02-21T13:16:32;99022.56;;;20.26;45.60
39435;BME280;66825;51.880;-0.518;2024-02-21T13:19:07;99049.31;;;20.49;45.20
39435;BME280;66825;51.880;-0.518;2024-02-21T13:21:34;99034.47;;;20.50;45.19
39435;BME280;66825;51.880;-0.518;2024-02-21T13:24:00;99026.44;;;20.41;45.01
39435;BME280;66825;51.880;-0.518;2024-02-21T13:26:25;99029.00;;;20.50;45.22
39435;BME280;66825;51.880;-0.518;2024-02-21T13:28:50;98887.78;;;19.62;45.30
39435;BME280;66825;51.880;-0.518;2024-02-21T13:31:16;99008.19;;;20.45;45.01
39435;BME280;66825;51.880;-0.518;2024-02-21T13:33:42;99026.81;;;20.56;45.87
39435;BME280;66825;51.880;-0.518;2024-02-21T13:36:09;98995.56;;;20.41;45.30
39435;BME280;66825;51.880;-0.518;2024-02-21T13:38:35;99024.84;;;20.56;45.41
39435;BME280;66825;51.880;-0.518;2024-02-21T13:41:01;98921.41;;;19.94;45.44
39435;BME280;66825;51.880;-0.518;2024-02-21T13:43:26;99009.28;;;20.60;45.35
39435;BME280;66825;51.880;-0.518;2024-02-21T13:46:00;98973.31;;;20.42;45.68
39435;BME280;66825;51.880;-0.518;2024-02-21T13:48:28;98904.38;;;20.01;45.76
39435;BME280;66825;51.880;-0.518;2024-02-21T13:50:54;98989.38;;;20.60;45.49
39435;BME280;66825;51.880;-0.518;2024-02-21T13:53:20;98966.78;;;20.47;45.41
39435;BME280;66825;51.880;-0.518;2024-02-21T13:55:46;98957.34;;;20.44;45.97
39435;BME280;66825;51.880;-0.518;2024-02-21T13:58:12;98962.63;;;20.53;45.60
39435;BME280;66825;51.880;-0.518;2024-02-21T14:00:37;98848.59;;;19.86;45.42
39435;BME280;66825;51.880;-0.518;2024-02-21T14:03:03;98940.03;;;20.56;45.57
39435;BME280;66825;51.880;-0.518;2024-02-21T14:05:29;98952.53;;;20.73;45.54
39435;BME280;66825;51.880;-0.518;2024-02-21T14:07:55;98962.88;;;20.80;45.48
39435;BME280;66825;51.880;-0.518;2024-02-21T14:10:21;98930.38;;;20.62;45.61
39435;BME280;66825;51.880;-0.518;2024-02-21T14:12:47;98934.63;;;20.76;45.24
39435;BME280;66825;51.880;-0.518;2024-02-21T14:15:16;98931.09;;;20.75;45.18
39435;BME280;66825;51.880;-0.518;2024-02-21T14:17:42;98940.53;;;20.78;45.06
39435;BME280;66825;51.880;-0.518;2024-02-21T14:20:08;98907.97;;;20.57;45.19
39435;BME280;66825;51.880;-0.518;2024-02-21T14:22:34;98788.03;;;19.84;45.04
39435;BME280;66825;51.880;-0.518;2024-02-21T14:25:00;98931.19;;;20.63;45.32
39435;BME280;66825;51.880;-0.518;2024-02-21T14:27:26;98915.94;;;20.62;45.34
39435;BME280;66825;51.880;-0.518;2024-02-21T14:29:51;98894.16;;;20.50;45.39
39435;BME280;66825;51.880;-0.518;2024-02-21T14:32:17;98895.91;;;20.58;45.38
39435;BME280;66825;51.880;-0.518;2024-02-21T14:34:42;98899.66;;;20.69;45.69
39435;BME280;66825;51.880;-0.518;2024-02-21T14:37:08;98889.94;;;20.72;45.74
39435;BME280;66825;51.880;-0.518;2024-02-21T14:39:33;98869.66;;;20.73;45.63
39435;BME280;66825;51.880;-0.518;2024-02-21T14:42:00;98833.97;;;20.50;45.66
39435;BME280;66825;51.880;-0.518;2024-02-21T14:44:26;98844.66;;;20.55;45.73
39435;BME280;66825;51.880;-0.518;2024-02-21T14:46:52;98780.75;;;20.08;45.87
39435;BME280;66825;51.880;-0.518;2024-02-21T14:49:18;98866.94;;;20.57;45.68
39435;BME280;66825;51.880;-0.518;2024-02-21T14:51:44;98865.09;;;20.61;46.08
39435;BME280;66825;51.880;-0.518;2024-02-21T14:54:10;98711.53;;;19.68;45.91
39435;BME280;66825;51.880;-0.518;2024-02-21T15:11:20;98852.94;;;20.58;45.92
39435;BME280;66825;51.880;-0.518;2024-02-21T15:13:47;98823.25;;;20.41;46.08
39435;BME280;66825;51.880;-0.518;2024-02-21T15:16:13;98853.25;;;20.57;45.84
39435;BME280;66825;51.880;-0.518;2024-02-21T15:18:38;98841.91;;;20.55;46.03
39435;BME280;66825;51.880;-0.518;2024-02-21T15:21:04;98836.78;;;20.53;45.89
39435;BME280;66825;51.880;-0.518;2024-02-21T15:23:29;98828.94;;;20.52;46.11
39435;BME280;66825;51.880;-0.518;2024-02-21T15:25:55;98807.19;;;20.39;46.27
39435;BME280;66825;51.880;-0.518;2024-02-21T15:28:20;98801.66;;;20.36;46.08
39435;BME280;66825;51.880;-0.518;2024-02-21T15:30:46;98816.56;;;20.38;46.11
39435;BME280;66825;51.880;-0.518;2024-02-21T15:33:12;98830.53;;;20.53;46.30
39435;BME280;66825;51.880;-0.518;2024-02-21T15:35:37;98824.84;;;20.42;46.35
39435;BME280;66825;51.880;-0.518;2024-02-21T15:38:03;98834.41;;;20.52;46.57
39435;BME280;66825;51.880;-0.518;2024-02-21T15:40:28;98839.19;;;20.55;46.62
39435;BME280;66825;51.880;-0.518;2024-02-21T15:42:54;98825.34;;;20.47;46.32
39435;BME280;66825;51.880;-0.518;2024-02-21T15:45:20;98827.88;;;20.56;47.08
39435;BME280;66825;51.880;-0.518;2024-02-21T15:47:46;98829.91;;;20.59;46.38
39435;BME280;66825;51.880;-0.518;2024-02-21T15:50:12;98837.50;;;20.70;46.57
39435;BME280;66825;51.880;-0.518;2024-02-21T15:52:37;98836.03;;;20.72;46.61
39435;BME280;66825;51.880;-0.518;2024-02-21T15:55:04;98844.22;;;20.72;46.50
39435;BME280;66825;51.880;-0.518;2024-02-21T15:57:30;98827.09;;;20.75;46.61
39435;BME280;66825;51.880;-0.518;2024-02-21T15:59:57;98846.84;;;20.85;46.41
39435;BME280;66825;51.880;-0.518;2024-02-21T16:02:23;98806.50;;;20.62;46.34
39435;BME280;66825;51.880;-0.518;2024-02-21T16:04:49;98849.22;;;20.86;45.88
39435;BME280;66825;51.880;-0.518;2024-02-21T16:07:15;98862.53;;;20.88;45.92
39435;BME280;66825;51.880;-0.518;2024-02-21T16:09:40;98849.22;;;20.86;46.03
39435;BME280;66825;51.880;-0.518;2024-02-21T16:12:09;98836.53;;;20.78;46.00
39435;BME280;66825;51.880;-0.518;2024-02-21T16:14:36;98855.38;;;20.83;46.19
39435;BME280;66825;51.880;-0.518;2024-02-21T16:17:03;98839.34;;;20.82;46.05
39435;BME280;66825;51.880;-0.518;2024-02-21T16:19:31;98840.13;;;20.82;46.50
39435;BME280;66825;51.880;-0.518;2024-02-21T16:21:58;98831.50;;;20.80;46.87
39435;BME280;66825;51.880;-0.518;2024-02-21T16:24:23;98828.84;;;20.84;46.30
39435;BME280;66825;51.880;-0.518;2024-02-21T16:26:49;98828.84;;;20.84;46.83
39435;BME280;66825;51.880;-0.518;2024-02-21T16:29:14;98842.22;;;20.89;47.11
39435;BME280;66825;51.880;-0.518;2024-02-21T16:31:40;98842.28;;;20.92;46.79
39435;BME280;66825;51.880;-0.518;2024-02-21T16:34:06;98792.44;;;20.63;46.26
39435;BME280;66825;51.880;-0.518;2024-02-21T16:36:32;98837.59;;;20.93;46.21
39435;BME280;66825;51.880;-0.518;2024-02-21T16:38:59;98832.94;;;20.93;46.83
39435;BME280;66825;51.880;-0.518;2024-02-21T16:41:26;98832.13;;;20.93;46.30
39435;BME280;66825;51.880;-0.518;2024-02-21T16:43:53;98832.13;;;20.93;46.35
39435;BME280;66825;51.880;-0.518;2024-02-21T16:46:18;98799.88;;;20.83;46.57
39435;BME280;66825;51.880;-0.518;2024-02-21T16:48:45;98802.53;;;20.79;46.66
39435;BME280;66825;51.880;-0.518;2024-02-21T16:51:11;98822.41;;;20.96;46.51
39435;BME280;66825;51.880;-0.518;2024-02-21T16:53:37;98822.41;;;20.96;46.15
39435;BME280;66825;51.880;-0.518;2024-02-21T16:56:03;98814.19;;;20.96;46.29
39435;BME280;66825;51.880;-0.518;2024-02-21T16:58:29;98789.28;;;20.81;46.29
39435;BME280;66825;51.880;-0.518;2024-02-21T17:01:05;98803.91;;;20.89;46.25
39435;BME280;66825;51.880;-0.518;2024-02-21T17:03:33;98780.78;;;20.67;46.28
39435;BME280;66825;51.880;-0.518;2024-02-21T17:05:58;98658.00;;;19.83;46.20
39435;BME280;66825;51.880;-0.518;2024-02-21T17:08:24;98824.94;;;20.85;46.07
39435;BME280;66825;51.880;-0.518;2024-02-21T17:10:50;98801.78;;;20.62;45.74
39435;BME280;66825;51.880;-0.518;2024-02-21T17:13:15;98835.81;;;20.81;45.88
39435;BME280;66825;51.880;-0.518;2024-02-21T17:15:41;98838.91;;;20.79;45.92
39435;BME280;66825;51.880;-0.518;2024-02-21T17:18:07;98836.53;;;20.78;45.94
39435;BME280;66825;51.880;-0.518;2024-02-21T17:20:32;98743.06;;;20.17;45.86
39435;BME280;66825;51.880;-0.518;2024-02-21T17:22:58;98845.13;;;20.76;46.09
39435;BME280;66825;51.880;-0.518;2024-02-21T17:25:23;98735.69;;;20.02;46.16
39435;BME280;66825;51.880;-0.518;2024-02-21T17:27:49;98835.59;;;20.70;46.10
39435;BME280;66825;51.880;-0.518;2024-02-21T17:30:15;98770.75;;;20.15;46.04
39435;BME280;66825;51.880;-0.518;2024-02-21T17:32:40;98819.94;;;20.51;46.01
39435;BME280;66825;51.880;-0.518;2024-02-21T17:35:06;98838.88;;;20.60;46.10
39435;BME280;66825;51.880;-0.518;2024-02-21T17:37:32;98842.31;;;20.57;46.13
39435;BME280;66825;51.880;-0.518;2024-02-21T17:40:01;98844.56;;;20.51;46.04
39435;BME280;66825;51.880;-0.518;2024-02-21T17:42:36;98831.69;;;20.52;46.08
39435;BME280;66825;51.880;-0.518;2024-02-21T17:45:02;98839.44;;;20.50;46.20
39435;BME280;66825;51.880;-0.518;2024-02-21T17:47:28;98839.81;;;20.48;46.19
39435;BME280;66825;51.880;-0.518;2024-02-21T17:49:54;98839.72;;;20.44;46.22
39435;BME280;66825;51.880;-0.518;2024-02-21T17:52:19;98832.22;;;20.41;46.30
39435;BME280;66825;51.880;-0.518;2024-02-21T17:54:45;98638.78;;;18.92;46.25
39435;BME280;66825;51.880;-0.518;2024-02-21T17:57:13;98756.97;;;19.76;46.17
39435;BME280;66825;51.880;-0.518;2024-02-21T17:59:41;98870.38;;;20.34;46.04
39435;BME280;66825;51.880;-0.518;2024-02-21T18:02:08;98864.47;;;20.32;46.23
39435;BME280;66825;51.880;-0.518;2024-02-21T18:04:35;98869.50;;;20.30;46.25
39435;BME280;66825;51.880;-0.518;2024-02-21T18:07:00;98880.81;;;20.28;46.20
39435;BME280;66825;51.880;-0.518;2024-02-21T18:09:26;98890.53;;;20.26;46.31
39435;BME280;66825;51.880;-0.518;2024-02-21T18:11:51;98883.78;;;20.23;46.17
39435;BME280;66825;51.880;-0.518;2024-02-21T18:14:17;98861.50;;;20.21;46.32
39435;BME280;66825;51.880;-0.518;2024-02-21T18:16:42;98872.78;;;20.20;46.28
39435;BME280;66825;51.880;-0.518;2024-02-21T18:19:08;98877.03;;;20.17;46.18
39435;BME280;66825;51.880;-0.518;2024-02-21T18:21:34;98870.31;;;20.14;46.57
39435;BME280;66825;51.880;-0.518;2024-02-21T18:23:59;98875.34;;;20.12;46.50
39435;BME280;66825;51.880;-0.518;2024-02-21T18:26:25;98779.16;;;19.55;46.43
39435;BME280;66825;51.880;-0.518;2024-02-21T18:28:50;98815.41;;;19.72;46.21
39435;BME280;66825;51.880;-0.518;2024-02-21T18:31:18;98844.38;;;19.89;46.65
39435;BME280;66825;51.880;-0.518;2024-02-21T18:33:43;98757.84;;;19.29;46.62
39435;BME280;66825;51.880;-0.518;2024-02-21T18:36:11;98772.34;;;19.33;46.60